Time;durP1;ratioP1;P1;durP2;ratioP2;P2;SDS_P1;SDS_P2;PMS_P1;PMS_P2;Temp;Humidity;BMP_temperature;BMP_pressure;BME280_temperature;BME280_humidity;BME280_pressure;Samples;Min_cycle;Max_cycle;Signal;HPM_P1;HPM_P2
2024/04/02 00:00:39;;;;;;;1.45;0.57;;;8.80;99.90;;;;;;4950561;28;20055;-60
2024/04/02 00:03:06;;;;;;;0.68;0.60;;;8.80;99.90;;;;;;4946593;28;20105;-60
2024/04/02 00:05:33;;;;;;;0.30;0.30;;;8.70;99.90;;;;;;4956497;28;20058;-60
2024/04/02 00:07:59;;;;;;;1.35;0.40;;;8.70;99.90;;;;;;4959158;28;20551;-59
2024/04/02 00:10:25;;;;;;;0.40;0.40;;;8.60;99.90;;;;;;4964417;28;20061;-60
2024/04/02 00:12:50;;;;;;;0.30;0.30;;;8.60;99.90;;;;;;4956418;28;20055;-60
2024/04/02 00:15:16;;;;;;;1.27;0.50;;;8.70;99.90;;;;;;4965326;28;20057;-60
2024/04/02 00:17:44;;;;;;;0.40;0.40;;;8.70;99.90;;;;;;4958489;28;20109;-60
2024/04/02 00:20:10;;;;;;;1.05;0.50;;;8.80;99.90;;;;;;4959081;28;20047;-60
2024/04/02 00:22:36;;;;;;;0.40;0.40;;;8.90;99.90;;;;;;4964809;28;20054;-60
2024/04/02 00:25:03;;;;;;;0.40;0.40;;;8.90;99.90;;;;;;4984398;28;20039;-60
2024/04/02 00:27:29;;;;;;;0.47;0.47;;;9.00;99.90;;;;;;4963241;28;20050;-60
2024/04/02 00:29:55;;;;;;;0.63;0.43;;;9.00;99.90;;;;;;4965503;28;20412;-60
2024/04/02 00:32:22;;;;;;;0.50;0.50;;;9.00;99.90;;;;;;4964955;28;20067;-60
2024/04/02 00:34:48;;;;;;;0.43;0.40;;;9.00;99.90;;;;;;4959946;28;20050;-60
2024/04/02 00:37:14;;;;;;;0.82;0.60;;;9.00;99.90;;;;;;4965234;28;20156;-59
2024/04/02 00:39:40;;;;;;;1.02;0.70;;;9.10;99.90;;;;;;4964033;28;20065;-60
2024/04/02 00:42:05;;;;;;;1.17;0.50;;;9.10;99.90;;;;;;4961407;28;20042;-60
2024/04/02 00:44:35;;;;;;;0.77;0.50;;;9.00;99.90;;;;;;4962434;28;20083;-60
2024/04/02 00:47:01;;;;;;;0.57;0.47;;;9.00;99.90;;;;;;4962254;28;20043;-60
2024/04/02 00:49:27;;;;;;;0.30;0.30;;;8.90;99.90;;;;;;4961163;28;20054;-59
2024/04/02 00:51:53;;;;;;;0.40;0.40;;;8.90;99.90;;;;;;4962617;28;20444;-60
2024/04/02 00:54:19;;;;;;;0.40;0.40;;;8.90;99.90;;;;;;4963039;28;20047;-60
2024/04/02 00:56:45;;;;;;;0.85;0.50;;;8.80;99.90;;;;;;4962026;28;20074;-60
2024/04/02 00:59:11;;;;;;;0.45;0.32;;;8.80;99.90;;;;;;4956751;28;20530;-61
2024/04/02 01:01:37;;;;;;;1.23;0.47;;;8.80;99.90;;;;;;4966083;28;20051;-60
2024/04/02 01:04:04;;;;;;;0.60;0.60;;;8.80;99.90;;;;;;4964195;28;20055;-60
2024/04/02 01:06:30;;;;;;;0.45;0.45;;;8.90;99.90;;;;;;4957354;28;20053;-60
2024/04/02 01:08:56;;;;;;;2.67;0.60;;;8.90;99.90;;;;;;4962501;28;20062;-60
2024/04/02 01:11:24;;;;;;;2.28;0.50;;;8.90;99.90;;;;;;4963646;28;20059;-59
2024/04/02 01:13:51;;;;;;;0.60;0.50;;;8.90;99.90;;;;;;4958929;28;20058;-60
2024/04/02 01:16:17;;;;;;;0.35;0.32;;;8.90;99.90;;;;;;4962132;28;20051;-60
2024/04/02 01:18:46;;;;;;;0.63;0.40;;;8.90;99.90;;;;;;4961369;28;20062;-59
2024/04/02 01:21:13;;;;;;;0.82;0.50;;;8.90;99.90;;;;;;4960168;28;20057;-60
2024/04/02 01:23:39;;;;;;;1.83;0.68;;;8.90;99.90;;;;;;4964601;28;21513;-60
2024/04/02 01:26:04;;;;;;;0.57;0.50;;;9.00;99.90;;;;;;4970753;28;20100;-60
2024/04/02 01:28:30;;;;;;;0.40;0.40;;;9.00;99.90;;;;;;4961220;28;20492;-60
2024/04/02 01:30:56;;;;;;;2.20;0.55;;;9.00;99.90;;;;;;4961691;28;20459;-60
2024/04/02 01:33:22;;;;;;;1.92;0.50;;;8.90;99.90;;;;;;4959583;28;20058;-61
2024/04/02 01:35:48;;;;;;;0.40;0.40;;;9.00;99.90;;;;;;4962947;28;20059;-60
2024/04/02 01:38:14;;;;;;;0.30;0.30;;;9.10;99.90;;;;;;4965156;28;20065;-61
2024/04/02 01:40:40;;;;;;;1.38;0.50;;;9.00;99.90;;;;;;4960240;28;20051;-61
2024/04/02 01:43:06;;;;;;;0.50;0.50;;;9.00;99.90;;;;;;4961436;28;20049;-60
2024/04/02 01:45:32;;;;;;;1.23;0.50;;;8.90;99.90;;;;;;4960609;28;20101;-60
2024/04/02 01:47:58;;;;;;;1.38;0.40;;;8.90;99.90;;;;;;4960433;28;20039;-60
2024/04/02 01:50:24;;;;;;;0.73;0.40;;;8.90;99.90;;;;;;4957372;28;20058;-59
2024/04/02 01:52:50;;;;;;;0.30;0.30;;;8.90;99.90;;;;;;4953600;28;20082;-61
2024/04/02 01:55:16;;;;;;;0.50;0.35;;;8.90;99.90;;;;;;4962695;28;20096;-61
2024/04/02 01:57:41;;;;;;;0.63;0.40;;;9.00;99.90;;;;;;4959618;28;20078;-61
2024/04/02 02:00:08;;;;;;;0.47;0.30;;;8.90;99.90;;;;;;4963663;28;20053;-61
2024/04/02 02:02:34;;;;;;;0.40;0.40;;;9.00;99.90;;;;;;4968365;28;20043;-61
2024/04/02 02:05:00;;;;;;;2.08;0.50;;;9.00;99.90;;;;;;4964332;28;20152;-61
2024/04/02 02:07:26;;;;;;;0.28;0.28;;;9.10;99.90;;;;;;4959336;28;20146;-61
2024/04/02 02:09:51;;;;;;;0.73;0.40;;;9.10;99.90;;;;;;4959403;28;20098;-61
2024/04/02 02:12:17;;;;;;;0.63;0.30;;;9.10;99.90;;;;;;4959696;28;20047;-60
2024/04/02 02:14:43;;;;;;;0.40;0.40;;;9.10;99.90;;;;;;4962666;28;20051;-60
2024/04/02 02:17:09;;;;;;;0.35;0.30;;;9.00;99.90;;;;;;4949191;28;20113;-60
2024/04/02 02:19:34;;;;;;;0.45;0.30;;;9.00;99.90;;;;;;4957406;28;20392;-61
2024/04/02 02:22:00;;;;;;;0.40;0.40;;;8.90;99.90;;;;;;4961466;28;20519;-60
2024/04/02 02:24:26;;;;;;;0.60;0.40;;;8.90;99.90;;;;;;4974868;28;20124;-61
2024/04/02 02:26:52;;;;;;;1.60;0.40;;;8.90;99.90;;;;;;4962045;28;20051;-60
2024/04/02 02:29:22;;;;;;;0.85;0.40;;;8.90;99.90;;;;;;4958523;28;20058;-60
2024/04/02 02:31:48;;;;;;;0.40;0.40;;;8.90;99.90;;;;;;4958871;28;20065;-60
2024/04/02 02:34:14;;;;;;;0.85;0.40;;;8.80;99.90;;;;;;4977855;28;20050;-60
2024/04/02 02:36:40;;;;;;;2.40;0.50;;;8.80;99.90;;;;;;4957998;28;20062;-61
2024/04/02 02:39:05;;;;;;;0.20;0.20;;;8.70;99.90;;;;;;4959371;28;20058;-61
2024/04/02 02:41:31;;;;;;;1.10;0.40;;;8.60;99.90;;;;;;4957159;28;20047;-60
2024/04/02 02:43:58;;;;;;;1.25;0.38;;;8.50;99.90;;;;;;4959738;28;20141;-60
2024/04/02 02:46:24;;;;;;;0.35;0.35;;;8.50;99.90;;;;;;4958551;28;20096;-61
2024/04/02 02:48:50;;;;;;;0.30;0.30;;;8.60;99.90;;;;;;4956386;28;20426;-59
2024/04/02 02:51:15;;;;;;;1.75;0.30;;;8.70;99.90;;;;;;4960716;28;20654;-58
2024/04/02 02:53:41;;;;;;;1.58;0.40;;;8.80;99.90;;;;;;4960202;28;20423;-59
2024/04/02 02:56:07;;;;;;;0.22;0.22;;;8.80;99.90;;;;;;4962753;28;20097;-59
2024/04/02 02:58:32;;;;;;;0.50;0.40;;;8.90;99.90;;;;;;4961872;28;20054;-58
2024/04/02 03:01:05;;;;;;;1.55;0.32;;;8.90;99.90;;;;;;4961715;28;20459;-59
2024/04/02 03:03:30;;;;;;;1.13;0.38;;;8.90;99.90;;;;;;4961113;28;20066;-58
2024/04/02 03:05:56;;;;;;;1.02;0.30;;;8.90;99.90;;;;;;4958471;28;20046;-59
2024/04/02 03:08:23;;;;;;;0.85;0.47;;;9.00;99.90;;;;;;4956726;28;20069;-61
2024/04/02 03:11:00;;;;;;;0.50;0.50;;;9.00;99.90;;;;;;4945067;28;20055;-61
2024/04/02 03:13:26;;;;;;;0.98;0.60;;;9.10;99.90;;;;;;4966028;28;20061;-61
2024/04/02 03:15:52;;;;;;;1.30;0.70;;;9.10;99.90;;;;;;4961600;28;20051;-61
2024/04/02 03:18:17;;;;;;;0.50;0.30;;;9.10;99.90;;;;;;4959219;28;20133;-61
2024/04/02 03:20:43;;;;;;;0.30;0.30;;;9.10;99.90;;;;;;4956630;28;20046;-60
2024/04/02 03:23:10;;;;;;;1.35;0.30;;;9.20;99.90;;;;;;4962524;28;20089;-61
2024/04/02 03:25:37;;;;;;;2.95;0.30;;;9.20;99.90;;;;;;4956460;28;20051;-60
2024/04/02 03:28:04;;;;;;;1.77;0.30;;;9.20;99.90;;;;;;4960780;28;20077;-61
2024/04/02 03:30:29;;;;;;;0.35;0.32;;;9.20;99.90;;;;;;4961799;28;20054;-61
2024/04/02 03:32:55;;;;;;;0.82;0.30;;;9.20;99.90;;;;;;4962270;28;20053;-61
2024/04/02 03:35:21;;;;;;;0.30;0.30;;;9.20;99.90;;;;;;4965189;28;20097;-61
2024/04/02 03:37:47;;;;;;;1.00;0.30;;;9.20;99.90;;;;;;4956988;28;20066;-61
2024/04/02 03:40:12;;;;;;;0.52;0.30;;;9.20;99.90;;;;;;4952578;28;20142;-61
2024/04/02 03:42:38;;;;;;;1.30;0.40;;;9.10;99.90;;;;;;4965249;28;20050;-60
2024/04/02 03:45:05;;;;;;;0.95;0.40;;;9.10;99.90;;;;;;4960193;28;20050;-61
2024/04/02 03:47:31;;;;;;;2.70;0.50;;;9.00;99.90;;;;;;4954979;28;20043;-58
2024/04/02 03:49:57;;;;;;;2.15;0.40;;;9.00;99.90;;;;;;4959895;28;20165;-61
2024/04/02 03:52:23;;;;;;;1.13;0.40;;;8.90;99.90;;;;;;4959808;28;20411;-61
2024/04/02 03:54:48;;;;;;;2.17;0.52;;;8.80;99.90;;;;;;4955552;28;20051;-61
2024/04/02 03:57:14;;;;;;;1.95;0.68;;;8.60;99.90;;;;;;4960269;28;20566;-61
2024/04/02 03:59:40;;;;;;;0.30;0.30;;;8.50;99.90;;;;;;4955259;28;20054;-60
2024/04/02 04:02:06;;;;;;;0.85;0.50;;;8.50;99.90;;;;;;4965248;28;20479;-61
2024/04/02 04:04:32;;;;;;;1.33;0.55;;;8.50;99.90;;;;;;4979244;28;20097;-61
2024/04/02 04:06:57;;;;;;;1.23;0.30;;;8.50;99.90;;;;;;4974715;28;20611;-61
2024/04/02 04:09:23;;;;;;;1.85;0.57;;;8.40;99.90;;;;;;4964417;28;20046;-61
2024/04/02 04:11:50;;;;;;;2.08;0.50;;;8.40;99.90;;;;;;4957998;28;20074;-60
2024/04/02 04:14:16;;;;;;;3.13;0.50;;;8.40;99.90;;;;;;4962062;28;20058;-61
2024/04/02 04:16:42;;;;;;;3.08;0.60;;;8.30;99.90;;;;;;4959960;28;20507;-61
2024/04/02 04:19:08;;;;;;;3.33;0.55;;;8.30;99.90;;;;;;4971083;28;20142;-61
2024/04/02 04:21:34;;;;;;;2.92;0.63;;;8.30;99.90;;;;;;4961592;28;20051;-61
2024/04/02 04:23:59;;;;;;;2.47;0.60;;;8.20;99.90;;;;;;4966360;28;20053;-60
2024/04/02 04:26:25;;;;;;;1.77;0.60;;;8.30;99.90;;;;;;4959485;28;20411;-60
2024/04/02 04:28:51;;;;;;;2.75;0.73;;;8.30;99.90;;;;;;4961027;28;20042;-59
2024/04/02 04:31:17;;;;;;;1.55;0.47;;;8.30;99.90;;;;;;4962450;28;20058;-59
2024/04/02 04:33:42;;;;;;;5.03;0.70;;;8.30;99.90;;;;;;4961615;28;20133;-60
2024/04/02 04:36:08;;;;;;;2.65;1.10;;;8.40;99.90;;;;;;4962286;28;20043;-61
2024/04/02 04:38:34;;;;;;;1.00;0.65;;;8.40;99.90;;;;;;4966791;28;20411;-61
2024/04/02 04:41:00;;;;;;;3.75;0.90;;;8.40;99.90;;;;;;4959812;28;20046;-61
2024/04/02 04:43:25;;;;;;;2.55;0.55;;;8.50;99.90;;;;;;4958880;28;20046;-61
2024/04/02 04:45:51;;;;;;;3.60;0.90;;;8.50;99.90;;;;;;4957155;28;20047;-61
2024/04/02 04:48:18;;;;;;;2.50;0.80;;;8.50;99.90;;;;;;4964253;28;20515;-61
2024/04/02 04:50:54;;;;;;;2.42;0.80;;;8.50;99.90;;;;;;4958759;28;20054;-61
2024/04/02 04:53:20;;;;;;;4.32;0.82;;;8.60;99.90;;;;;;4959693;28;20050;-61
2024/04/02 04:55:46;;;;;;;3.70;0.98;;;8.50;99.90;;;;;;4959446;28;20051;-61
2024/04/02 04:58:12;;;;;;;4.35;0.73;;;8.50;99.90;;;;;;4960936;28;20097;-61
2024/04/02 05:00:37;;;;;;;2.15;0.82;;;8.50;99.90;;;;;;4961583;28;20054;-61
2024/04/02 05:03:03;;;;;;;4.53;0.85;;;8.50;99.90;;;;;;4964985;28;20133;-61
2024/04/02 05:05:29;;;;;;;5.53;1.60;;;8.50;99.90;;;;;;4968266;28;20589;-61
2024/04/02 05:08:18;;;;;;;3.67;0.80;;;8.50;99.90;;;;;;4964241;28;20089;-61
2024/04/02 05:10:48;;;;;;;3.35;1.05;;;8.50;99.90;;;;;;4956724;28;20069;-61
2024/04/02 05:13:15;;;;;;;;;;;8.60;99.90;;;;;;4959505;28;20055;-61
2024/04/02 05:15:41;;;;;;;3.67;0.90;;;8.60;99.90;;;;;;4961367;28;19930;-61
2024/04/02 05:18:07;;;;;;;5.22;0.90;;;8.60;99.90;;;;;;4956757;28;20058;-61
2024/04/02 05:20:33;;;;;;;8.02;1.35;;;8.70;99.90;;;;;;4961391;28;20295;-61
2024/04/02 05:22:59;;;;;;;5.90;1.42;;;8.70;99.90;;;;;;4962961;28;20056;-60
2024/04/02 05:25:25;;;;;;;7.60;1.00;;;8.70;99.90;;;;;;4962141;28;20051;-61
2024/04/02 05:27:50;;;;;;;7.85;1.30;;;8.80;99.90;;;;;;4961192;28;20054;-60
2024/04/02 05:30:16;;;;;;;10.73;1.40;;;8.80;99.90;;;;;;4964049;28;20046;-61
2024/04/02 05:32:42;;;;;;;3.05;1.00;;;8.90;99.90;;;;;;4966074;28;20495;-61
2024/04/02 05:35:08;;;;;;;5.93;1.45;;;8.90;99.90;;;;;;4962582;28;20047;-60
2024/04/02 05:37:36;;;;;;;8.35;1.60;;;8.90;99.90;;;;;;4966126;28;20082;-60
2024/04/02 05:40:07;;;;;;;4.30;1.45;;;9.00;99.90;;;;;;4955935;28;20050;-61
2024/04/02 05:42:33;;;;;;;5.70;1.30;;;9.00;99.90;;;;;;4981945;28;20047;-61
2024/04/02 05:45:00;;;;;;;6.57;1.60;;;9.10;99.90;;;;;;4962117;28;20109;-61
2024/04/02 05:47:26;;;;;;;9.98;1.85;;;9.10;99.90;;;;;;4960242;28;20492;-61
2024/04/02 05:49:52;;;;;;;5.63;1.27;;;9.20;99.90;;;;;;4959693;28;20058;-60
2024/04/02 05:52:18;;;;;;;9.15;1.58;;;9.20;99.90;;;;;;4962122;28;20052;-61
2024/04/02 05:54:45;;;;;;;5.22;1.48;;;9.20;99.90;;;;;;4955387;28;20051;-60
2024/04/02 05:57:15;;;;;;;8.80;1.50;;;9.30;99.90;;;;;;4963293;28;21282;-60
2024/04/02 05:59:41;;;;;;;4.80;1.55;;;9.30;99.90;;;;;;4960775;28;20426;-61
2024/04/02 06:02:07;;;;;;;6.25;1.45;;;9.30;99.90;;;;;;4967949;28;20069;-61
2024/04/02 06:04:32;;;;;;;7.65;1.38;;;9.40;99.90;;;;;;4959768;28;20496;-60
2024/04/02 06:06:58;;;;;;;4.90;1.77;;;9.40;99.90;;;;;;4958037;28;20050;-61
2024/04/02 06:09:24;;;;;;;9.50;1.52;;;9.50;99.90;;;;;;4957187;28;20605;-61
2024/04/02 06:11:50;;;;;;;8.93;1.83;;;9.60;99.90;;;;;;4974196;23;20047;-61
2024/04/02 06:14:15;;;;;;;8.35;2.65;;;9.70;99.90;;;;;;4995636;28;20039;-61
2024/04/02 06:16:41;;;;;;;8.32;1.40;;;9.80;99.90;;;;;;4969247;28;20050;-61
2024/04/02 06:19:07;;;;;;;6.85;1.50;;;9.90;99.90;;;;;;4971084;28;20124;-60
2024/04/02 06:21:33;;;;;;;6.82;1.30;;;9.90;99.90;;;;;;4958610;28;20119;-61
2024/04/02 06:23:58;;;;;;;8.10;2.50;;;10.00;99.90;;;;;;4960111;28;20058;-62
2024/04/02 06:26:24;;;;;;;7.82;1.50;;;10.00;99.90;;;;;;4954932;28;20420;-62
2024/04/02 06:28:50;;;;;;;6.32;1.77;;;10.10;99.90;;;;;;4958111;28;20435;-63
2024/04/02 06:31:15;;;;;;;7.45;2.33;;;10.20;99.90;;;;;;4956257;28;20054;-62
2024/04/02 06:33:41;;;;;;;7.50;2.50;;;10.30;99.90;;;;;;4960847;28;20054;-61
2024/04/02 06:36:07;;;;;;;8.15;1.92;;;10.40;99.90;;;;;;4954465;28;20070;-62
2024/04/02 06:38:33;;;;;;;8.68;1.98;;;10.40;99.90;;;;;;4956619;28;20534;-62
2024/04/02 06:40:59;;;;;;;7.28;1.60;;;10.30;99.90;;;;;;4956194;28;20071;-63
2024/04/02 06:43:25;;;;;;;16.20;7.78;;;10.20;99.90;;;;;;4953897;28;20043;-62
2024/04/02 06:45:55;;;;;;;12.45;5.28;;;10.10;99.90;;;;;;4958912;28;20055;-63
2024/04/02 06:48:24;;;;;;;6.72;2.70;;;10.00;99.90;;;;;;4952976;28;20047;-62
2024/04/02 06:51:00;;;;;;;10.52;3.17;;;10.00;99.90;;;;;;4958898;28;20108;-62
2024/04/02 06:53:30;;;;;;;8.77;3.70;;;9.90;99.90;;;;;;4958848;28;20601;-62
2024/04/02 06:55:56;;;;;;;8.65;2.55;;;9.80;99.90;;;;;;4958430;28;20051;-61
2024/04/02 06:58:22;;;;;;;7.88;1.95;;;9.80;99.90;;;;;;4955420;28;20062;-62
2024/04/02 07:00:49;;;;;;;7.38;1.52;;;9.70;99.90;;;;;;4950947;28;20039;-60
2024/04/02 07:03:22;;;;;;;8.77;1.52;;;9.70;99.90;;;;;;4946371;28;20506;-57
2024/04/02 07:05:50;;;;;;;10.07;1.40;;;9.70;99.90;;;;;;4947038;28;20053;-61
2024/04/02 07:08:16;;;;;;;12.38;1.73;;;9.70;99.90;;;;;;4948316;28;20050;-61
2024/04/02 07:10:44;;;;;;;6.43;1.70;;;9.80;99.90;;;;;;4945572;28;20561;-62
2024/04/02 07:13:11;;;;;;;5.15;1.55;;;9.80;99.90;;;;;;4953669;28;20547;-62
2024/04/02 07:15:40;;;;;;;4.15;1.05;;;10.00;99.90;;;;;;4947022;28;20070;-62
2024/04/02 07:18:06;;;;;;;6.38;1.40;;;10.30;99.90;;;;;;4949610;28;20109;-63
2024/04/02 07:20:32;;;;;;;7.22;1.42;;;10.50;99.90;;;;;;4957654;28;20046;-60
2024/04/02 07:22:59;;;;;;;4.43;1.38;;;10.40;99.90;;;;;;4948234;28;20054;-61
2024/04/02 07:25:25;;;;;;;19.13;1.85;;;10.40;99.90;;;;;;4949404;28;20051;-62
2024/04/02 07:27:52;;;;;;;7.20;1.48;;;10.40;99.90;;;;;;4951016;28;20059;-62
2024/04/02 07:30:18;;;;;;;12.52;1.90;;;10.60;99.90;;;;;;4955469;28;20054;-63
2024/04/02 07:32:44;;;;;;;5.30;1.70;;;10.70;99.90;;;;;;4960589;28;20530;-63
2024/04/02 07:35:10;;;;;;;6.95;2.03;;;10.70;99.90;;;;;;4963699;28;20137;-60
2024/04/02 07:37:35;;;;;;;7.15;1.58;;;10.80;99.90;;;;;;4965731;28;20058;-61
2024/04/02 07:40:02;;;;;;;5.50;1.75;;;10.90;99.90;;;;;;4961675;28;20058;-60
2024/04/02 07:42:28;;;;;;;4.85;1.73;;;11.10;99.90;;;;;;4960699;28;20653;-61
2024/04/02 07:44:54;;;;;;;11.45;1.55;;;11.00;99.90;;;;;;4961885;28;20058;-62
2024/04/02 07:47:19;;;;;;;4.82;1.73;;;11.00;99.90;;;;;;4964686;28;20046;-59
2024/04/02 07:49:45;;;;;;;8.45;2.45;;;10.90;99.90;;;;;;4953284;28;20101;-61
2024/04/02 07:52:11;;;;;;;6.05;1.52;;;10.90;99.90;;;;;;4956380;28;20047;-61
2024/04/02 07:54:36;;;;;;;7.43;1.25;;;10.80;99.90;;;;;;4960946;28;20054;-60
2024/04/02 07:57:02;;;;;;;4.75;1.67;;;10.80;99.90;;;;;;4958871;28;20093;-62
2024/04/02 07:59:28;;;;;;;5.20;1.60;;;10.90;99.90;;;;;;4966617;28;20050;-62
2024/04/02 08:01:54;;;;;;;10.93;3.28;;;10.90;99.90;;;;;;4960990;28;20059;-62
2024/04/02 08:04:20;;;;;;;5.63;1.33;;;11.00;99.90;;;;;;4964012;28;20046;-61
2024/04/02 08:06:46;;;;;;;5.88;1.40;;;11.10;99.90;;;;;;4954738;28;20502;-62
2024/04/02 08:09:12;;;;;;;5.68;1.50;;;11.20;99.90;;;;;;4954795;28;20055;-59
2024/04/02 08:11:38;;;;;;;6.40;1.40;;;11.20;99.90;;;;;;4963488;28;20057;-61
2024/04/02 08:14:04;;;;;;;3.00;1.00;;;11.20;99.90;;;;;;4952751;28;20082;-62
2024/04/02 08:16:32;;;;;;;3.08;1.02;;;11.20;99.90;;;;;;4962336;28;20043;-62
2024/04/02 08:18:58;;;;;;;4.20;1.38;;;11.30;99.90;;;;;;4963306;28;20066;-60
2024/04/02 08:21:24;;;;;;;6.10;1.23;;;11.40;99.90;;;;;;4960556;28;20451;-61
2024/04/02 08:23:50;;;;;;;4.85;1.23;;;11.30;99.90;;;;;;4959351;28;20054;-63
2024/04/02 08:26:22;;;;;;;6.78;1.02;;;11.30;99.90;;;;;;4951631;28;20054;-62
2024/04/02 08:28:48;;;;;;;4.97;1.33;;;11.10;99.90;;;;;;4960791;28;20148;-61
2024/04/02 08:31:15;;;;;;;9.38;1.30;;;11.00;99.90;;;;;;4960178;28;20054;-62
2024/04/02 08:33:40;;;;;;;3.45;0.98;;;11.00;99.90;;;;;;4968138;28;20081;-61
2024/04/02 08:36:06;;;;;;;4.50;1.25;;;10.90;99.90;;;;;;4958696;28;20047;-63
2024/04/02 08:38:34;;;;;;;3.50;1.00;;;11.20;99.90;;;;;;4961215;28;20101;-61
2024/04/02 08:41:05;;;;;;;8.45;1.23;;;11.30;99.90;;;;;;4949031;28;20075;-61
2024/04/02 08:43:31;;;;;;;4.05;0.88;;;11.20;99.90;;;;;;4965583;28;20491;-61
2024/04/02 08:46:00;;;;;;;3.08;0.70;;;11.40;99.90;;;;;;4960253;28;20051;-61
2024/04/02 08:48:26;;;;;;;4.82;0.82;;;11.30;99.90;;;;;;4961224;28;20046;-62
2024/04/02 08:50:55;;;;;;;1.02;0.50;;;11.10;99.90;;;;;;4966315;28;20530;-62
2024/04/02 08:53:22;;;;;;;2.20;0.60;;;10.90;99.90;;;;;;4960616;28;20062;-62
2024/04/02 08:55:48;;;;;;;2.25;0.70;;;11.20;99.90;;;;;;4959767;28;20063;-63
2024/04/02 08:58:14;;;;;;;1.40;0.50;;;11.60;99.90;;;;;;4951447;28;20650;-62
2024/04/02 09:00:40;;;;;;;3.42;0.80;;;11.70;99.90;;;;;;4944025;28;20110;-63
2024/04/02 09:03:14;;;;;;;2.28;0.80;;;11.70;99.90;;;;;;4951342;28;20507;-61
2024/04/02 09:05:40;;;;;;;2.25;0.90;;;11.70;99.90;;;;;;4957301;28;20090;-60
2024/04/02 09:08:12;;;;;;;1.92;0.63;;;11.60;99.90;;;;;;4957288;28;20431;-61
2024/04/02 09:10:38;;;;;;;3.00;0.80;;;11.60;99.90;;;;;;4963303;28;20279;-61
2024/04/02 09:13:04;;;;;;;4.18;0.90;;;11.70;99.90;;;;;;4957103;28;20562;-61
2024/04/02 09:15:30;;;;;;;1.92;0.70;;;12.20;99.90;;;;;;4959649;28;20051;-60
2024/04/02 09:17:56;;;;;;;1.70;0.70;;;12.40;99.90;;;;;;4961955;28;20069;-60
2024/04/02 09:20:22;;;;;;;5.88;1.05;;;12.70;99.90;;;;;;4954814;28;20411;-62
2024/04/02 09:22:48;;;;;;;1.90;0.47;;;12.70;99.90;;;;;;4956973;28;20058;-62
2024/04/02 09:25:15;;;;;;;2.53;0.77;;;12.60;99.90;;;;;;4971495;28;20085;-63
2024/04/02 09:27:41;;;;;;;3.03;1.05;;;12.60;99.90;;;;;;4961973;28;20097;-62
2024/04/02 09:30:07;;;;;;;7.70;1.00;;;12.80;99.90;;;;;;4950349;28;20078;-61
2024/04/02 09:32:38;;;;;;;2.03;0.65;;;12.60;99.90;;;;;;4959864;28;20050;-61
2024/04/02 09:35:14;;;;;;;3.38;0.70;;;12.60;99.90;;;;;;4958154;28;20062;-63
2024/04/02 09:37:43;;;;;;;4.55;1.35;;;12.70;99.90;;;;;;4969401;28;20058;-62
2024/04/02 09:40:11;;;;;;;2.58;0.73;;;12.70;99.90;;;;;;4962040;28;20059;-63
2024/04/02 09:42:39;;;;;;;1.05;0.60;;;12.70;99.90;;;;;;4965097;28;20043;-63
2024/04/02 09:45:08;;;;;;;2.78;1.13;;;13.00;99.90;;;;;;4955968;28;20113;-62
2024/04/02 09:47:34;;;;;;;3.67;0.85;;;13.10;99.90;;;;;;4955864;28;20472;-59
2024/04/02 09:50:00;;;;;;;13.88;1.20;;;13.00;99.90;;;;;;4961801;28;20071;-61
2024/04/02 09:52:27;;;;;;;2.17;0.98;;;12.90;99.90;;;;;;4964204;28;20058;-62
2024/04/02 09:54:54;;;;;;;4.72;1.00;;;12.90;99.90;;;;;;4956625;28;20066;-60
2024/04/02 09:57:21;;;;;;;4.03;0.65;;;13.20;99.90;;;;;;4957021;28;20047;-61
2024/04/02 09:59:47;;;;;;;2.60;0.63;;;13.20;99.90;;;;;;4955678;28;20098;-62
2024/04/02 10:02:21;;;;;;;3.03;1.00;;;13.30;99.90;;;;;;4951828;28;20431;-60
2024/04/02 10:04:47;;;;;;;5.95;0.95;;;13.40;99.90;;;;;;4949070;28;20051;-61
2024/04/02 10:07:23;;;;;;;4.10;1.00;;;13.10;99.90;;;;;;4952311;28;20079;-62
2024/04/02 10:09:57;;;;;;;4.75;0.80;;;12.90;99.90;;;;;;4948134;28;20051;-61
2024/04/02 10:12:27;;;;;;;0.80;0.55;;;12.70;99.90;;;;;;4953423;28;20081;-61
2024/04/02 10:14:53;;;;;;;6.13;0.88;;;12.80;99.90;;;;;;4958523;28;20054;-62
2024/04/02 10:17:20;;;;;;;2.65;0.88;;;12.70;99.90;;;;;;4950788;28;20101;-61
2024/04/02 10:19:47;;;;;;;3.08;0.82;;;12.70;99.90;;;;;;4966676;28;20051;-61
2024/04/02 10:22:23;;;;;;;2.42;0.68;;;12.80;99.90;;;;;;4947482;28;20055;-61
2024/04/02 10:25:12;;;;;;;2.97;1.10;;;13.00;99.90;;;;;;4956464;28;20050;-60
2024/04/02 10:27:43;;;;;;;4.97;1.05;;;13.20;99.90;;;;;;4958519;28;20050;-61
2024/04/02 10:30:20;;;;;;;3.53;0.88;;;13.20;99.90;;;;;;4935063;28;20053;-61
2024/04/02 10:32:47;;;;;;;2.33;0.82;;;13.00;99.90;;;;;;4947746;28;20051;-61
2024/04/02 10:35:17;;;;;;;4.35;1.15;;;13.00;99.90;;;;;;4964502;28;21166;-61
2024/04/02 10:37:43;;;;;;;4.97;1.05;;;13.10;99.90;;;;;;4947534;28;20054;-60
2024/04/02 10:40:09;;;;;;;3.83;1.17;;;13.30;99.90;;;;;;4945506;28;20517;-61
2024/04/02 10:42:34;;;;;;;5.20;0.90;;;13.30;99.90;;;;;;4957851;28;20047;-61
2024/04/02 10:45:01;;;;;;;2.75;0.90;;;12.80;99.90;;;;;;4959205;28;20050;-61
2024/04/02 10:47:28;;;;;;;1.83;0.70;;;12.60;99.90;;;;;;4954665;28;20050;-60
2024/04/02 10:49:54;;;;;;;9.00;1.30;;;12.50;99.90;;;;;;4956147;28;20062;-61
2024/04/02 10:52:20;;;;;;;3.75;0.80;;;12.30;99.90;;;;;;4965330;28;20061;-63
2024/04/02 10:54:46;;;;;;;3.97;0.80;;;12.20;99.90;;;;;;4950192;28;20054;-62
2024/04/02 10:57:12;;;;;;;4.32;1.02;;;12.00;99.90;;;;;;4954518;28;20465;-61
2024/04/02 10:59:41;;;;;;;4.25;0.80;;;12.10;99.90;;;;;;4940517;28;20065;-62
2024/04/02 11:02:18;;;;;;;5.78;0.73;;;12.00;99.90;;;;;;4954547;28;20051;-62
2024/04/02 11:04:44;;;;;;;3.15;0.88;;;11.90;99.90;;;;;;4953476;28;20063;-62
2024/04/02 11:07:11;;;;;;;4.40;0.80;;;12.00;99.90;;;;;;4959124;28;20113;-62
2024/04/02 11:09:39;;;;;;;2.40;1.00;;;12.40;99.90;;;;;;4950772;28;20484;-62
2024/04/02 11:12:07;;;;;;;2.88;0.75;;;12.70;99.90;;;;;;4957526;28;20066;-64
2024/04/02 11:14:33;;;;;;;4.25;1.80;;;12.90;99.90;;;;;;4962777;28;20061;-63
2024/04/02 11:16:59;;;;;;;4.07;0.80;;;12.90;99.90;;;;;;4964350;28;20059;-61
2024/04/02 11:19:25;;;;;;;6.57;1.20;;;12.80;99.90;;;;;;4930012;28;20055;-63
2024/04/02 11:24:57;;;;;;;2.60;0.60;;;12.80;99.90;;;;;;4957108;28;20053;-63
2024/04/02 11:25:03;;;;;;;2.65;0.68;;;12.80;99.90;;;;;;4958481;28;20055;-62
2024/04/02 11:27:31;;;;;;;3.35;0.70;;;13.00;99.90;;;;;;4952094;28;20046;-63
2024/04/02 11:29:57;;;;;;;1.88;0.70;;;13.40;99.90;;;;;;4946513;28;20047;-59
2024/04/02 11:32:23;;;;;;;5.22;0.82;;;13.50;99.90;;;;;;4944953;28;20274;-64
2024/04/02 11:35:13;;;;;;;4.00;0.93;;;13.70;99.90;;;;;;4954824;28;20058;-63
2024/04/02 11:37:40;;;;;;;2.53;0.98;;;13.90;99.90;;;;;;4958644;28;20057;-63
2024/04/02 11:40:07;;;;;;;4.95;0.80;;;14.20;99.90;;;;;;4959308;28;20411;-63
2024/04/02 11:42:33;;;;;;;4.43;0.70;;;14.20;99.90;;;;;;4957557;28;20065;-62
2024/04/02 11:45:06;;;;;;;5.18;0.88;;;14.20;99.90;;;;;;4956176;28;20046;-64
2024/04/02 11:47:35;;;;;;;1.83;0.57;;;14.00;99.90;;;;;;4968886;28;20061;-62
2024/04/02 11:50:05;;;;;;;1.40;0.65;;;14.00;99.90;;;;;;4957398;28;20058;-64
2024/04/02 11:52:34;;;;;;;3.20;0.63;;;14.20;99.90;;;;;;4969790;28;20050;-64
2024/04/02 11:54:59;;;;;;;5.18;0.80;;;14.40;99.90;;;;;;4948093;28;20112;-63
2024/04/02 12:00:19;;;;;;;4.20;0.98;;;14.60;99.90;;;;;;4956115;28;20706;-63
2024/04/02 12:02:46;;;;;;;3.70;0.90;;;14.60;99.90;;;;;;4955371;28;20519;-63
2024/04/02 12:05:13;;;;;;;3.75;1.00;;;14.30;99.90;;;;;;4954301;28;20071;-63
2024/04/02 12:07:39;;;;;;;5.25;0.90;;;14.00;99.90;;;;;;4944839;28;20042;-62
2024/04/02 12:10:06;;;;;;;2.38;0.68;;;14.00;99.90;;;;;;4953577;28;20086;-63
2024/04/02 12:12:33;;;;;;;3.05;0.73;;;14.20;99.90;;;;;;4953439;28;20062;-62
2024/04/02 12:15:00;;;;;;;1.70;0.60;;;14.50;99.90;;;;;;4960888;28;20082;-62
2024/04/02 12:17:26;;;;;;;5.13;0.80;;;14.80;99.90;;;;;;4959293;28;20528;-63
2024/04/02 12:19:55;;;;;;;3.88;0.47;;;14.80;99.90;;;;;;4963335;28;20058;-62
2024/04/02 12:22:24;;;;;;;1.60;0.60;;;14.80;99.90;;;;;;4959204;28;20042;-63
2024/04/02 12:24:51;;;;;;;2.97;0.60;;;14.80;99.90;;;;;;4957750;28;20046;-63
2024/04/02 12:27:19;;;;;;;3.60;0.90;;;14.80;99.90;;;;;;4955414;28;20042;-64
2024/04/02 12:29:45;;;;;;;1.45;0.80;;;14.60;99.90;;;;;;4942339;28;20492;-64
2024/04/02 12:32:11;;;;;;;1.88;0.90;;;14.50;99.90;;;;;;4969781;28;20047;-63
2024/04/02 12:34:41;;;;;;;2.08;0.60;;;14.60;99.90;;;;;;4952458;28;20121;-63
2024/04/02 12:37:07;;;;;;;1.58;0.63;;;14.50;99.90;;;;;;4951734;28;20054;-63
2024/04/02 12:39:34;;;;;;;2.72;0.55;;;14.40;99.90;;;;;;4951654;28;20355;-64
2024/04/02 12:42:00;;;;;;;2.60;0.90;;;14.30;99.90;;;;;;4951810;28;20072;-63
2024/04/02 12:44:30;;;;;;;6.05;1.00;;;14.40;99.90;;;;;;4954853;28;20050;-64
2024/04/02 12:46:59;;;;;;;2.42;0.73;;;14.50;99.90;;;;;;4957329;28;20055;-63
2024/04/02 12:49:26;;;;;;;0.98;0.55;;;14.40;99.90;;;;;;4953566;28;20055;-63
2024/04/02 12:51:52;;;;;;;4.00;0.82;;;14.20;99.90;;;;;;4969192;28;20050;-64
2024/04/02 12:54:19;;;;;;;5.45;0.95;;;13.90;99.90;;;;;;4969164;28;20058;-63